createdAt,value
2016-07-17T00:00:58.160Z,0
2016-07-17T00:01:59.589Z,0
2016-07-17T00:02:58.177Z,0
2016-07-17T00:03:58.180Z,0
2016-07-17T00:05:00.350Z,0
2016-07-17T00:05:58.899Z,0
2016-07-17T00:06:58.755Z,0
2016-07-17T00:07:58.909Z,0
2016-07-17T00:08:58.202Z,0
2016-07-17T00:09:58.211Z,0
2016-07-17T00:10:58.924Z,0
2016-07-17T00:11:58.926Z,0
2016-07-17T00:12:58.227Z,0
2016-07-17T00:13:58.940Z,0
2016-07-17T00:14:58.945Z,0
2016-07-17T00:15:59.948Z,0
2016-07-17T00:16:58.959Z,0
2016-07-17T00:17:59.013Z,0
2016-07-17T00:18:59.670Z,0
2016-07-17T00:19:59.680Z,0
2016-07-17T00:20:58.974Z,0
2016-07-17T00:21:59.689Z,0
2016-07-17T00:22:59.005Z,0
2016-07-17T00:23:58.988Z,0
2016-07-17T00:24:58.997Z,0
2016-07-17T00:25:57.586Z,0
2016-07-17T00:26:59.557Z,0
2016-07-17T00:27:58.312Z,0
2016-07-17T00:28:59.322Z,0
2016-07-17T00:29:59.026Z,0
2016-07-17T00:30:58.325Z,0
2016-07-17T00:31:59.034Z,0
2016-07-17T00:32:58.333Z,0
2016-07-17T00:33:59.047Z,0
2016-07-17T00:34:59.055Z,0
2016-07-17T00:35:58.350Z,0
2016-07-17T00:36:57.648Z,0
2016-07-17T00:37:59.711Z,0
2016-07-17T00:38:58.370Z,0
2016-07-17T00:39:59.474Z,0
2016-07-17T00:40:59.791Z,0
2016-07-17T00:41:59.095Z,0
2016-07-17T00:42:59.093Z,0
2016-07-17T00:43:58.398Z,0
2016-07-17T00:44:59.108Z,0
2016-07-17T00:45:59.113Z,0
2016-07-17T00:46:58.411Z,0
2016-07-17T00:47:59.120Z,0
2016-07-17T00:49:00.630Z,0
2016-07-17T00:49:59.135Z,0
2016-07-17T00:51:00.138Z,0
2016-07-17T00:51:59.148Z,0
2016-07-17T00:52:59.206Z,0
2016-07-17T00:53:59.158Z,0
2016-07-17T00:54:58.459Z,0
2016-07-17T00:55:58.459Z,0
2016-07-17T00:56:59.176Z,0
2016-07-17T00:57:57.770Z,0
2016-07-17T00:58:59.188Z,0
2016-07-17T01:00:00.199Z,0
2016-07-17T01:00:59.208Z,0
2016-07-17T01:01:59.803Z,0
2016-07-17T01:02:59.911Z,0
2016-07-17T01:03:59.923Z,0
2016-07-17T01:04:59.219Z,0
2016-07-17T01:05:59.234Z,0
2016-07-17T01:06:58.523Z,0
2016-07-17T01:07:58.528Z,0
2016-07-17T01:08:57.878Z,0
2016-07-17T01:09:57.839Z,0
2016-07-17T01:11:00.426Z,0
2016-07-17T01:11:57.845Z,0
2016-07-17T01:13:00.211Z,0
2016-07-17T01:13:58.566Z,0
2016-07-17T01:14:59.271Z,0
2016-07-17T01:15:59.279Z,0
2016-07-17T01:16:59.287Z,0
2016-07-17T01:17:59.291Z,0
2016-07-17T01:18:58.589Z,0
2016-07-17T01:19:58.791Z,0
2016-07-17T01:20:58.600Z,0
2016-07-17T01:21:58.607Z,0
2016-07-17T01:22:58.611Z,0
2016-07-17T01:24:00.234Z,0
2016-07-17T01:24:58.627Z,0
2016-07-17T01:25:59.336Z,0
2016-07-17T01:26:58.635Z,0
2016-07-17T01:28:00.051Z,0
2016-07-17T01:28:58.700Z,0
2016-07-17T01:29:59.402Z,0
2016-07-17T01:30:59.708Z,0
2016-07-17T01:31:58.658Z,0
2016-07-17T01:32:58.717Z,0
2016-07-17T01:33:59.378Z,0
2016-07-17T01:34:58.682Z,0
2016-07-17T01:36:00.093Z,0
2016-07-17T01:36:59.396Z,0
2016-07-17T01:37:58.697Z,0
2016-07-17T01:38:59.405Z,0
2016-07-17T01:39:57.998Z,0
2016-07-17T01:40:59.411Z,0
2016-07-17T01:41:59.969Z,0
2016-07-17T01:43:00.152Z,0
2016-07-17T01:43:58.973Z,0
2016-07-17T01:44:59.435Z,0
2016-07-17T01:45:58.735Z,0
2016-07-17T01:46:58.742Z,0
2016-07-17T01:47:59.448Z,0
2016-07-17T01:48:59.469Z,0
2016-07-17T01:50:00.166Z,0
2016-07-17T01:50:59.475Z,0
2016-07-17T01:51:58.768Z,0
2016-07-17T01:53:00.380Z,0
2016-07-17T01:53:59.489Z,0
2016-07-17T01:54:59.375Z,0
2016-07-17T01:55:58.787Z,0
2016-07-17T01:56:58.283Z,0
2016-07-17T01:57:58.799Z,0
2016-07-17T01:58:59.514Z,0
2016-07-17T01:59:59.518Z,0
2016-07-17T02:00:59.525Z,0
2016-07-17T02:01:58.825Z,0
2016-07-17T02:02:59.535Z,0
2016-07-17T02:03:59.351Z,0
2016-07-17T02:04:58.136Z,0
2016-07-17T02:05:59.841Z,0
2016-07-17T02:06:58.846Z,0
2016-07-17T02:08:00.267Z,0
2016-07-17T02:09:00.270Z,0
2016-07-17T02:09:59.569Z,0
2016-07-17T02:10:59.584Z,0
2016-07-17T02:11:59.580Z,0
2016-07-17T02:12:58.883Z,0
2016-07-17T02:13:59.597Z,0
2016-07-17T02:14:58.897Z,0
2016-07-17T02:15:58.897Z,0
2016-07-17T02:17:00.358Z,0
2016-07-17T02:17:59.615Z,0
2016-07-17T02:19:00.324Z,0
2016-07-17T02:19:58.920Z,0
2016-07-17T02:20:58.923Z,0
2016-07-17T02:21:58.932Z,0
2016-07-17T02:22:59.643Z,0
2016-07-17T02:23:58.937Z,0
2016-07-17T02:24:58.947Z,0
2016-07-17T02:25:58.950Z,0
2016-07-17T02:26:58.956Z,0
2016-07-17T02:28:00.773Z,0
2016-07-17T02:28:59.720Z,0
2016-07-17T02:29:59.576Z,0
2016-07-17T02:30:59.705Z,0
2016-07-17T02:32:00.402Z,0
2016-07-17T02:32:58.990Z,0
2016-07-17T02:33:59.699Z,0
2016-07-17T02:34:59.707Z,0
2016-07-17T02:35:59.009Z,0
2016-07-17T02:36:59.718Z,0
2016-07-17T02:37:59.011Z,0
2016-07-17T02:39:00.837Z,0
2016-07-17T02:39:59.731Z,0
2016-07-17T02:41:00.450Z,0
2016-07-17T02:42:00.451Z,0
2016-07-17T02:42:59.039Z,0
2016-07-17T02:44:00.464Z,0
2016-07-17T02:44:59.051Z,0
2016-07-17T02:45:59.770Z,0
2016-07-17T02:46:59.064Z,0
2016-07-17T02:47:59.824Z,0
2016-07-17T02:48:59.782Z,0
2016-07-17T02:49:59.074Z,0
2016-07-17T02:50:59.085Z,0
2016-07-17T02:51:59.759Z,0
2016-07-17T02:52:59.144Z,0
2016-07-17T02:53:59.102Z,0
2016-07-17T02:54:59.105Z,0
2016-07-17T02:55:59.821Z,0
2016-07-17T02:56:59.113Z,0
2016-07-17T02:58:00.535Z,0
2016-07-17T02:58:58.714Z,0
2016-07-17T02:59:58.428Z,0
2016-07-17T03:00:59.843Z,0
2016-07-17T03:01:59.153Z,0
2016-07-17T03:03:00.202Z,0
2016-07-17T03:03:59.160Z,0
2016-07-17T03:04:59.157Z,0
2016-07-17T03:05:59.165Z,0
2016-07-17T03:06:59.875Z,0
2016-07-17T03:08:00.590Z,0
2016-07-17T03:08:59.884Z,0
2016-07-17T03:10:00.394Z,0
2016-07-17T03:10:59.197Z,0
2016-07-17T03:11:59.906Z,0
2016-07-17T03:12:59.915Z,0
2016-07-17T03:14:00.395Z,0
2016-07-17T03:14:59.214Z,0
2016-07-17T03:15:59.924Z,0
2016-07-17T03:16:59.937Z,0
2016-07-17T03:17:59.932Z,0
2016-07-17T03:18:59.235Z,0
2016-07-17T03:20:00.653Z,0
2016-07-17T03:21:00.669Z,0
2016-07-17T03:21:59.247Z,0
2016-07-17T03:23:01.939Z,4
2016-07-17T03:24:00.676Z,4
2016-07-17T03:25:01.530Z,4
2016-07-17T03:25:59.983Z,4
2016-07-17T03:26:59.282Z,0
2016-07-17T03:27:59.288Z,4
2016-07-17T03:28:59.290Z,4
2016-07-17T03:30:00.717Z,4
2016-07-17T03:31:00.764Z,4
2016-07-17T03:32:00.518Z,4
2016-07-17T03:33:00.023Z,8
2016-07-17T03:33:59.574Z,4
2016-07-17T03:34:59.326Z,8
2016-07-17T03:36:00.037Z,8
2016-07-17T03:37:00.045Z,8
2016-07-17T03:38:00.053Z,12
2016-07-17T03:38:59.343Z,8
2016-07-17T03:39:59.351Z,8
2016-07-17T03:41:00.060Z,12
2016-07-17T03:42:00.774Z,12
2016-07-17T03:43:00.075Z,12
2016-07-17T03:43:59.370Z,12
2016-07-17T03:44:59.830Z,12
2016-07-17T03:46:00.792Z,12
2016-07-17T03:46:59.440Z,12
2016-07-17T03:48:00.103Z,16
2016-07-17T03:49:00.104Z,20
2016-07-17T03:50:00.818Z,24
2016-07-17T03:50:59.408Z,28
2016-07-17T03:52:00.125Z,32
2016-07-17T03:53:00.128Z,32
2016-07-17T03:54:00.373Z,36
2016-07-17T03:55:00.853Z,36
2016-07-17T03:56:01.399Z,32
2016-07-17T03:56:59.443Z,32
2016-07-17T03:57:59.647Z,36
2016-07-17T03:59:00.864Z,36
2016-07-17T04:00:00.175Z,36
2016-07-17T04:01:00.168Z,32
2016-07-17T04:02:00.198Z,40
2016-07-17T04:03:00.888Z,44
2016-07-17T04:04:00.190Z,52
2016-07-17T04:05:01.172Z,56
2016-07-17T04:05:59.495Z,56
2016-07-17T04:07:00.256Z,64
2016-07-17T04:08:00.206Z,72
2016-07-17T04:08:59.964Z,72
2016-07-17T04:10:00.925Z,76
2016-07-17T04:10:59.519Z,76
2016-07-17T04:11:58.818Z,76
2016-07-17T04:13:00.236Z,76
2016-07-17T04:14:00.244Z,76
2016-07-17T04:15:00.954Z,80
2016-07-17T04:16:01.380Z,84
2016-07-17T04:17:00.968Z,80
2016-07-17T04:18:01.212Z,84
2016-07-17T04:18:59.564Z,88
2016-07-17T04:20:00.166Z,96
2016-07-17T04:21:00.284Z,100
2016-07-17T04:22:00.990Z,100
2016-07-17T04:22:59.585Z,112
2016-07-17T04:23:59.590Z,108
2016-07-17T04:24:59.601Z,112
2016-07-17T04:25:59.603Z,116
2016-07-17T04:27:01.556Z,124
2016-07-17T04:28:00.318Z,136
2016-07-17T04:29:00.822Z,132
2016-07-17T04:29:59.619Z,132
2016-07-17T04:31:00.429Z,136
2016-07-17T04:32:00.339Z,136
2016-07-17T04:33:00.345Z,136
2016-07-17T04:34:01.108Z,140
2016-07-17T04:34:59.651Z,148
2016-07-17T04:36:01.073Z,160
2016-07-17T04:36:59.660Z,168
2016-07-17T04:37:59.965Z,172
2016-07-17T04:39:00.377Z,176
2016-07-17T04:40:00.976Z,176
2016-07-17T04:40:59.677Z,168
2016-07-17T04:42:01.099Z,172
2016-07-17T04:43:01.103Z,180
2016-07-17T04:44:00.405Z,180
2016-07-17T04:44:58.996Z,188
2016-07-17T04:46:01.124Z,212
2016-07-17T04:46:59.718Z,228
2016-07-17T04:48:01.129Z,224
2016-07-17T04:49:01.405Z,220
2016-07-17T04:50:00.437Z,208
2016-07-17T04:50:59.735Z,200
2016-07-17T04:52:01.155Z,188
2016-07-17T04:52:59.749Z,188
2016-07-17T04:54:01.161Z,184
2016-07-17T04:54:59.757Z,192
2016-07-17T04:56:00.476Z,200
2016-07-17T04:57:00.473Z,208
2016-07-17T04:57:59.065Z,216
2016-07-17T04:59:01.185Z,228
2016-07-17T04:59:59.783Z,224
2016-07-17T05:01:00.492Z,228
2016-07-17T05:02:01.480Z,228
2016-07-17T05:03:00.504Z,220
2016-07-17T05:03:59.093Z,232
2016-07-17T05:04:59.105Z,240
2016-07-17T05:05:59.810Z,244
2016-07-17T05:06:59.112Z,248
2016-07-17T05:08:01.236Z,248
2016-07-17T05:08:59.125Z,260
2016-07-17T05:10:00.542Z,256
2016-07-17T05:11:00.750Z,244
2016-07-17T05:12:00.568Z,236
2016-07-17T05:13:01.876Z,236
2016-07-17T05:14:00.565Z,248
2016-07-17T05:14:59.155Z,252
2016-07-17T05:16:00.577Z,256
2016-07-17T05:17:00.580Z,268
2016-07-17T05:17:59.169Z,276
2016-07-17T05:19:00.593Z,276
2016-07-17T05:19:59.890Z,272
2016-07-17T05:21:00.600Z,280
2016-07-17T05:22:00.507Z,292
2016-07-17T05:23:00.613Z,308
2016-07-17T05:24:02.176Z,332
2016-07-17T05:25:01.330Z,352
2016-07-17T05:26:00.630Z,380
2016-07-17T05:27:00.636Z,396
2016-07-17T05:27:59.930Z,400
2016-07-17T05:29:00.646Z,412
2016-07-17T05:29:59.943Z,460
2016-07-17T05:31:00.659Z,476
2016-07-17T05:32:00.665Z,476
2016-07-17T05:33:02.373Z,488
2016-07-17T05:34:00.723Z,476
2016-07-17T05:35:01.384Z,452
2016-07-17T05:35:59.268Z,452
2016-07-17T05:37:00.690Z,468
2016-07-17T05:38:00.001Z,500
2016-07-17T05:39:01.407Z,528
2016-07-17T05:40:00.704Z,556
2016-07-17T05:40:59.999Z,564
2016-07-17T05:42:00.009Z,552
2016-07-17T05:43:00.011Z,540
2016-07-17T05:44:01.980Z,508
2016-07-17T05:45:00.733Z,492
2016-07-17T05:46:00.986Z,488
2016-07-17T05:47:00.742Z,488
2016-07-17T05:47:59.359Z,496
2016-07-17T05:49:00.752Z,492
2016-07-17T05:50:01.467Z,508
2016-07-17T05:51:00.775Z,516
2016-07-17T05:52:01.484Z,528
2016-07-17T05:53:00.072Z,544
2016-07-17T05:54:01.487Z,556
2016-07-17T05:55:00.083Z,548
2016-07-17T05:56:01.502Z,540
2016-07-17T05:57:01.399Z,548
2016-07-17T05:58:00.809Z,548
2016-07-17T05:59:00.105Z,564
2016-07-17T06:00:00.114Z,596
2016-07-17T06:01:00.835Z,628
2016-07-17T06:01:59.423Z,660
2016-07-17T06:03:00.844Z,712
2016-07-17T06:04:00.135Z,732
2016-07-17T06:04:59.436Z,776
2016-07-17T06:06:00.149Z,832
2016-07-17T06:07:00.865Z,812
2016-07-17T06:08:01.965Z,788
2016-07-17T06:09:01.583Z,792
2016-07-17T06:10:01.589Z,764
2016-07-17T06:11:00.181Z,752
2016-07-17T06:12:01.600Z,740
2016-07-17T06:13:00.895Z,728
2016-07-17T06:14:00.907Z,724
2016-07-17T06:15:00.915Z,704
2016-07-17T06:16:00.917Z,700
2016-07-17T06:17:00.923Z,700
2016-07-17T06:18:00.217Z,716
2016-07-17T06:19:00.229Z,720
2016-07-17T06:20:00.229Z,724
2016-07-17T06:21:00.242Z,736
2016-07-17T06:22:00.951Z,744
2016-07-17T06:23:00.251Z,744
2016-07-17T06:24:00.957Z,760
2016-07-17T06:25:01.679Z,752
2016-07-17T06:26:00.979Z,752
2016-07-17T06:27:00.275Z,760
2016-07-17T06:28:00.984Z,772
2016-07-17T06:29:00.994Z,792
2016-07-17T06:30:00.291Z,832
2016-07-17T06:31:01.719Z,832
2016-07-17T06:32:01.720Z,844
2016-07-17T06:33:01.014Z,848
2016-07-17T06:33:59.663Z,856
2016-07-17T06:35:01.075Z,876
2016-07-17T06:36:01.036Z,912
2016-07-17T06:37:01.053Z,936
2016-07-17T06:38:01.047Z,940
2016-07-17T06:39:01.402Z,928
2016-07-17T06:40:00.353Z,924
2016-07-17T06:41:01.062Z,960
2016-07-17T06:42:01.069Z,980
2016-07-17T06:43:01.071Z,1036
2016-07-17T06:44:01.077Z,1068
2016-07-17T06:45:01.082Z,1148
2016-07-17T06:46:00.383Z,1168
2016-07-17T06:47:00.392Z,1136
2016-07-17T06:48:00.397Z,1200
2016-07-17T06:49:01.107Z,1256
2016-07-17T06:50:01.663Z,1316
2016-07-17T06:51:01.834Z,1356
2016-07-17T06:52:01.270Z,1500
2016-07-17T06:53:01.836Z,1368
2016-07-17T06:54:00.476Z,1252
2016-07-17T06:55:01.152Z,1212
2016-07-17T06:56:00.439Z,1204
2016-07-17T06:57:01.862Z,1312
2016-07-17T06:58:00.458Z,1320
2016-07-17T06:59:00.457Z,1192
2016-07-17T07:00:01.177Z,1056
2016-07-17T07:01:02.530Z,992
2016-07-17T07:02:01.181Z,936
2016-07-17T07:03:01.785Z,896
2016-07-17T07:04:01.193Z,896
2016-07-17T07:05:01.199Z,932
2016-07-17T07:06:01.208Z,948
2016-07-17T07:07:00.503Z,932
2016-07-17T07:08:01.221Z,904
2016-07-17T07:08:59.808Z,940
2016-07-17T07:09:59.812Z,1044
2016-07-17T07:11:00.530Z,1116
2016-07-17T07:12:02.761Z,1156
2016-07-17T07:13:01.258Z,1268
2016-07-17T07:14:02.355Z,1352
2016-07-17T07:15:01.259Z,1360
2016-07-17T07:16:01.971Z,1304
2016-07-17T07:17:01.276Z,1308
2016-07-17T07:18:00.571Z,1364
2016-07-17T07:19:01.283Z,1144
2016-07-17T07:20:01.286Z,1076
2016-07-17T07:21:00.586Z,1008
2016-07-17T07:22:02.007Z,896
2016-07-17T07:23:00.248Z,776
2016-07-17T07:24:01.315Z,716
2016-07-17T07:25:01.991Z,700
2016-07-17T07:26:00.619Z,668
2016-07-17T07:27:00.625Z,652
2016-07-17T07:28:01.337Z,632
2016-07-17T07:29:01.337Z,628
2016-07-17T07:30:00.642Z,652
2016-07-17T07:31:02.058Z,664
2016-07-17T07:32:01.358Z,700
2016-07-17T07:33:01.359Z,712
2016-07-17T07:34:01.515Z,656
2016-07-17T07:35:01.475Z,556
2016-07-17T07:36:02.659Z,508
2016-07-17T07:37:00.681Z,508
2016-07-17T07:38:01.396Z,548
2016-07-17T07:39:01.405Z,576
2016-07-17T07:40:01.406Z,608
2016-07-17T07:41:01.414Z,612
2016-07-17T07:42:02.124Z,596
2016-07-17T07:43:00.011Z,636
2016-07-17T07:44:00.721Z,676
2016-07-17T07:45:02.390Z,708
2016-07-17T07:46:00.740Z,740
2016-07-17T07:47:02.862Z,732
2016-07-17T07:48:00.742Z,752
2016-07-17T07:49:01.459Z,796
2016-07-17T07:50:01.480Z,836
2016-07-17T07:51:01.466Z,864
2016-07-17T07:52:00.060Z,912
2016-07-17T07:53:00.771Z,948
2016-07-17T07:54:01.484Z,912
2016-07-17T07:55:00.783Z,868
2016-07-17T07:56:02.244Z,844
2016-07-17T07:57:00.791Z,832
2016-07-17T07:58:03.188Z,796
2016-07-17T07:59:01.514Z,760
2016-07-17T08:00:00.812Z,728
2016-07-17T08:01:00.819Z,664
2016-07-17T08:02:01.532Z,616
2016-07-17T08:03:01.544Z,584
2016-07-17T08:04:00.838Z,524
2016-07-17T08:05:00.846Z,496
2016-07-17T08:06:01.555Z,444
2016-07-17T08:07:02.228Z,396
2016-07-17T08:08:00.865Z,392
2016-07-17T08:09:02.524Z,440
2016-07-17T08:10:00.875Z,504
2016-07-17T08:11:00.879Z,508
2016-07-17T08:12:01.610Z,520
2016-07-17T08:13:01.601Z,524
2016-07-17T08:14:01.603Z,504
2016-07-17T08:15:00.912Z,424
2016-07-17T08:16:00.907Z,384
2016-07-17T08:17:02.337Z,420
2016-07-17T08:18:00.934Z,472
2016-07-17T08:19:01.633Z,528
2016-07-17T08:20:02.781Z,624
2016-07-17T08:21:01.654Z,604
2016-07-17T08:22:01.647Z,500
2016-07-17T08:23:01.660Z,412
2016-07-17T08:24:02.366Z,376
2016-07-17T08:25:00.962Z,384
2016-07-17T08:26:02.379Z,380
2016-07-17T08:27:01.880Z,392
2016-07-17T08:28:01.688Z,464
2016-07-17T08:29:00.880Z,548
2016-07-17T08:30:01.712Z,712
2016-07-17T08:31:02.852Z,848
2016-07-17T08:32:01.711Z,900
2016-07-17T08:33:01.712Z,940
2016-07-17T08:34:01.017Z,1024
2016-07-17T08:35:00.315Z,1096
2016-07-17T08:36:01.074Z,1180
2016-07-17T08:37:02.454Z,1224
2016-07-17T08:38:01.937Z,1248
2016-07-17T08:39:01.044Z,1264
2016-07-17T08:40:01.688Z,1344
2016-07-17T08:41:02.471Z,1368
2016-07-17T08:42:03.593Z,1368
2016-07-17T08:43:01.768Z,1420
2016-07-17T08:44:01.073Z,1556
2016-07-17T08:45:01.784Z,1852
2016-07-17T08:46:01.792Z,1680
2016-07-17T08:47:01.800Z,1472
2016-07-17T08:48:01.809Z,1336
2016-07-17T08:49:03.624Z,1296
2016-07-17T08:50:01.111Z,1328
2016-07-17T08:51:02.166Z,1484
2016-07-17T08:52:01.824Z,1696
2016-07-17T08:53:01.127Z,2012
2016-07-17T08:54:01.840Z,1944
2016-07-17T08:55:01.138Z,1888
2016-07-17T08:56:01.147Z,1744
2016-07-17T08:57:02.564Z,1720
2016-07-17T08:58:01.156Z,2084
2016-07-17T08:59:02.571Z,2576
2016-07-17T09:00:02.790Z,2324
2016-07-17T09:01:01.880Z,1708
2016-07-17T09:02:02.739Z,1312
2016-07-17T09:03:01.891Z,1004
2016-07-17T09:04:01.588Z,828
2016-07-17T09:05:01.907Z,812
2016-07-17T09:06:01.910Z,908
2016-07-17T09:07:02.617Z,1128
2016-07-17T09:08:01.215Z,1404
2016-07-17T09:09:01.220Z,1728
2016-07-17T09:10:01.930Z,1936
2016-07-17T09:11:02.087Z,2080
2016-07-17T09:12:01.236Z,2084
2016-07-17T09:13:03.763Z,1896
2016-07-17T09:14:01.960Z,1624
2016-07-17T09:15:02.908Z,1508
2016-07-17T09:16:02.674Z,1536
2016-07-17T09:17:01.266Z,1476
2016-07-17T09:18:01.976Z,1416
2016-07-17T09:19:01.279Z,1288
2016-07-17T09:20:01.992Z,1180
2016-07-17T09:21:02.707Z,1052
2016-07-17T09:22:02.706Z,912
2016-07-17T09:23:01.315Z,756
2016-07-17T09:24:01.310Z,628
2016-07-17T09:25:02.018Z,556
2016-07-17T09:26:03.537Z,504
2016-07-17T09:27:01.328Z,516
2016-07-17T09:28:01.334Z,516
2016-07-17T09:29:02.050Z,444
2016-07-17T09:30:01.345Z,324
2016-07-17T09:31:01.356Z,248
2016-07-17T09:32:02.067Z,260
2016-07-17T09:33:03.221Z,220
2016-07-17T09:34:02.788Z,304
2016-07-17T09:35:02.132Z,460
2016-07-17T09:36:02.091Z,632
2016-07-17T09:37:03.117Z,720
2016-07-17T09:38:02.807Z,704
2016-07-17T09:39:02.158Z,584
2016-07-17T09:40:01.405Z,500
2016-07-17T09:41:02.115Z,504
2016-07-17T09:42:02.827Z,576
2016-07-17T09:43:02.836Z,680
2016-07-17T09:44:02.836Z,840
2016-07-17T09:45:01.433Z,936
2016-07-17T09:46:02.543Z,916
2016-07-17T09:47:02.857Z,1064
2016-07-17T09:48:02.154Z,1240
2016-07-17T09:49:02.158Z,1416
2016-07-17T09:50:01.458Z,1328
2016-07-17T09:51:02.170Z,1108
2016-07-17T09:52:01.467Z,864
2016-07-17T09:53:02.184Z,848
2016-07-17T09:54:02.896Z,896
2016-07-17T09:55:03.193Z,1004
2016-07-17T09:56:02.196Z,1052
2016-07-17T09:57:02.807Z,976
2016-07-17T09:58:01.509Z,976
2016-07-17T09:59:02.216Z,1036
2016-07-17T10:00:02.219Z,1080
2016-07-17T10:01:00.813Z,1260
2016-07-17T10:02:00.816Z,1328
2016-07-17T10:03:02.945Z,1300
2016-07-17T10:04:02.949Z,1572
2016-07-17T10:05:02.248Z,1488
2016-07-17T10:06:03.785Z,1408
2016-07-17T10:07:02.253Z,1520
2016-07-17T10:08:02.917Z,1784
2016-07-17T10:09:02.266Z,2012
2016-07-17T10:10:02.573Z,1984
2016-07-17T10:11:03.010Z,1804
2016-07-17T10:12:02.996Z,1684
2016-07-17T10:13:03.006Z,1600
2016-07-17T10:14:02.296Z,1536
2016-07-17T10:15:03.012Z,1600
2016-07-17T10:16:03.020Z,1912
2016-07-17T10:17:03.991Z,2108
2016-07-17T10:18:02.338Z,2116
2016-07-17T10:19:00.970Z,2096
2016-07-17T10:20:02.333Z,2116
2016-07-17T10:21:02.836Z,2780
2016-07-17T10:22:03.050Z,3000
2016-07-17T10:23:02.351Z,2460
2016-07-17T10:24:01.652Z,2060
2016-07-17T10:25:02.365Z,1700
2016-07-17T10:26:02.371Z,1424
2016-07-17T10:27:01.672Z,1168
2016-07-17T10:28:01.674Z,1048
2016-07-17T10:29:01.681Z,1088
2016-07-17T10:30:04.218Z,1068
2016-07-17T10:31:01.690Z,1004
2016-07-17T10:32:01.699Z,872
2016-07-17T10:33:02.409Z,828
2016-07-17T10:34:01.712Z,796
2016-07-17T10:35:02.426Z,748
2016-07-17T10:36:03.134Z,760
2016-07-17T10:37:01.017Z,820
2016-07-17T10:38:01.130Z,904
2016-07-17T10:39:02.999Z,1012
2016-07-17T10:40:02.450Z,968
2016-07-17T10:41:02.462Z,1132
2016-07-17T10:42:01.754Z,1180
2016-07-17T10:43:03.878Z,1212
2016-07-17T10:44:01.780Z,1512
2016-07-17T10:45:02.483Z,1772
2016-07-17T10:46:01.779Z,1700
2016-07-17T10:47:01.791Z,1504
2016-07-17T10:48:02.503Z,1464
2016-07-17T10:49:03.216Z,1320
2016-07-17T10:50:03.408Z,1308
2016-07-17T10:51:02.516Z,1592
2016-07-17T10:52:02.527Z,1932
2016-07-17T10:53:01.829Z,2048
2016-07-17T10:54:02.539Z,2480
2016-07-17T10:55:02.576Z,2612
2016-07-17T10:56:02.564Z,2632
2016-07-17T10:57:03.313Z,2740
2016-07-17T10:58:01.145Z,2576
2016-07-17T10:59:01.864Z,2492
2016-07-17T11:00:02.583Z,2468
2016-07-17T11:01:03.078Z,2392
2016-07-17T11:02:03.496Z,2340
2016-07-17T11:03:02.791Z,2352
2016-07-17T11:04:03.304Z,2404
2016-07-17T11:05:02.613Z,2392
2016-07-17T11:06:01.905Z,2592
2016-07-17T11:07:02.620Z,2400
2016-07-17T11:08:01.941Z,2320
2016-07-17T11:09:02.635Z,2108
2016-07-17T11:10:03.345Z,2056
2016-07-17T11:11:02.647Z,1840
2016-07-17T11:12:03.591Z,1492
2016-07-17T11:13:03.368Z,1400
2016-07-17T11:14:03.825Z,1424
2016-07-17T11:15:01.261Z,1408
2016-07-17T11:16:01.972Z,1212
2016-07-17T11:17:03.392Z,1172
2016-07-17T11:18:03.403Z,1124
2016-07-17T11:19:02.705Z,952
2016-07-17T11:20:02.700Z,820
2016-07-17T11:21:02.728Z,760
2016-07-17T11:22:02.009Z,708
2016-07-17T11:23:04.565Z,692
2016-07-17T11:24:02.022Z,716
2016-07-17T11:25:03.592Z,784
2016-07-17T11:26:02.036Z,888
2016-07-17T11:27:02.749Z,1108
2016-07-17T11:28:02.044Z,1152
2016-07-17T11:29:02.051Z,1140
2016-07-17T11:30:02.769Z,1004
2016-07-17T11:31:02.064Z,988
2016-07-17T11:32:02.791Z,924
2016-07-17T11:33:02.080Z,876
2016-07-17T11:34:02.489Z,868
2016-07-17T11:35:03.503Z,932
2016-07-17T11:36:02.806Z,1032
2016-07-17T11:37:02.809Z,1168
2016-07-17T11:38:03.534Z,1328
2016-07-17T11:39:02.824Z,1500
2016-07-17T11:40:02.837Z,1624
2016-07-17T11:41:02.833Z,1628
2016-07-17T11:42:01.425Z,1632
2016-07-17T11:43:02.193Z,1576
2016-07-17T11:44:02.147Z,1612
2016-07-17T11:45:02.908Z,1564
2016-07-17T11:46:02.868Z,1472
2016-07-17T11:47:02.873Z,1420
2016-07-17T11:48:03.588Z,1336
2016-07-17T11:49:02.889Z,1228
2016-07-17T11:50:02.896Z,1108
2016-07-17T11:51:02.902Z,904
2016-07-17T11:52:02.903Z,676
2016-07-17T11:53:01.498Z,436
2016-07-17T11:54:02.920Z,244
2016-07-17T11:55:01.515Z,204
2016-07-17T11:56:03.275Z,208
2016-07-17T11:57:02.233Z,252
2016-07-17T11:58:02.285Z,320
2016-07-17T11:59:02.246Z,384
2016-07-17T12:00:02.961Z,448
2016-07-17T12:01:02.965Z,540
2016-07-17T12:02:02.965Z,648
2016-07-17T12:03:02.973Z,832
2016-07-17T12:04:03.686Z,988
2016-07-17T12:05:02.275Z,1128
2016-07-17T12:06:02.986Z,1356
2016-07-17T12:07:02.286Z,1600
2016-07-17T12:08:02.292Z,1644
2016-07-17T12:09:03.252Z,1640
2016-07-17T12:10:02.299Z,1540
2016-07-17T12:11:02.305Z,1596
2016-07-17T12:12:03.031Z,1516
2016-07-17T12:13:03.022Z,1480
2016-07-17T12:14:03.736Z,1424
2016-07-17T12:15:02.331Z,1404
2016-07-17T12:16:03.041Z,1428
2016-07-17T12:17:03.044Z,1416
2016-07-17T12:18:03.896Z,1396
2016-07-17T12:19:03.055Z,1440
2016-07-17T12:20:02.812Z,1452
2016-07-17T12:21:03.065Z,1636
2016-07-17T12:22:03.069Z,1900
2016-07-17T12:23:03.074Z,1960
2016-07-17T12:24:01.666Z,1656
2016-07-17T12:25:03.804Z,1412
2016-07-17T12:26:02.381Z,1296
2016-07-17T12:27:03.096Z,1452
2016-07-17T12:28:02.387Z,1284
2016-07-17T12:29:04.879Z,1272
2016-07-17T12:30:02.400Z,1408
2016-07-17T12:31:03.811Z,1280
2016-07-17T12:32:03.826Z,1344
2016-07-17T12:33:02.423Z,1616
2016-07-17T12:34:02.425Z,1844
2016-07-17T12:35:02.430Z,1772
2016-07-17T12:36:03.854Z,1684
2016-07-17T12:37:02.436Z,1388
2016-07-17T12:38:02.449Z,1244
2016-07-17T12:39:02.450Z,1180
2016-07-17T12:40:03.165Z,1216
2016-07-17T12:41:02.462Z,1276
2016-07-17T12:42:02.467Z,1336
2016-07-17T12:43:03.942Z,1376
2016-07-17T12:44:01.768Z,1388
2016-07-17T12:45:03.200Z,1428
2016-07-17T12:46:02.490Z,1600
2016-07-17T12:47:03.207Z,1852
2016-07-17T12:48:03.208Z,2056
2016-07-17T12:49:03.215Z,2028
2016-07-17T12:50:02.514Z,1876
2016-07-17T12:51:03.926Z,1772
2016-07-17T12:52:03.954Z,1788
2016-07-17T12:53:04.964Z,1736
2016-07-17T12:54:03.950Z,1748
2016-07-17T12:55:02.538Z,1724
2016-07-17T12:56:03.962Z,1764
2016-07-17T12:57:01.843Z,1928
2016-07-17T12:58:01.846Z,1888
2016-07-17T12:59:02.567Z,1880
2016-07-17T13:00:02.567Z,1808
2016-07-17T13:01:03.284Z,1684
2016-07-17T13:02:04.189Z,1548
2016-07-17T13:03:04.002Z,1388
2016-07-17T13:04:03.300Z,1292
2016-07-17T13:05:04.011Z,1264
2016-07-17T13:06:01.907Z,1396
2016-07-17T13:07:04.049Z,1420
2016-07-17T13:08:02.613Z,1544
2016-07-17T13:09:01.914Z,1644
2016-07-17T13:10:01.916Z,1812
2016-07-17T13:11:02.636Z,1844
2016-07-17T13:12:03.343Z,1868
2016-07-17T13:13:03.748Z,1908
2016-07-17T13:14:02.656Z,1912
2016-07-17T13:15:03.510Z,1776
2016-07-17T13:16:03.380Z,1692
2016-07-17T13:17:03.374Z,1676
2016-07-17T13:18:02.677Z,1764
2016-07-17T13:19:02.684Z,1688
2016-07-17T13:20:02.689Z,1724
2016-07-17T13:21:03.396Z,1796
2016-07-17T13:22:02.707Z,1656
2016-07-17T13:23:02.708Z,1464
2016-07-17T13:24:05.024Z,1536
2016-07-17T13:25:03.426Z,1588
2016-07-17T13:26:03.433Z,1464
2016-07-17T13:27:02.028Z,1200
2016-07-17T13:28:03.439Z,1124
2016-07-17T13:29:03.450Z,1156
2016-07-17T13:30:04.164Z,1196
2016-07-17T13:31:02.765Z,1140
2016-07-17T13:32:03.465Z,904
2016-07-17T13:33:04.185Z,736
2016-07-17T13:34:02.774Z,604
2016-07-17T13:35:04.465Z,580
2016-07-17T13:36:03.676Z,640
2016-07-17T13:37:02.084Z,708
2016-07-17T13:38:03.503Z,768
2016-07-17T13:39:03.524Z,808
2016-07-17T13:40:04.275Z,724
2016-07-17T13:41:02.829Z,716
2016-07-17T13:42:03.526Z,720
2016-07-17T13:43:04.241Z,696
2016-07-17T13:44:03.739Z,668
2016-07-17T13:45:04.255Z,696
2016-07-17T13:46:02.845Z,636
2016-07-17T13:47:02.852Z,584
2016-07-17T13:48:05.274Z,572
2016-07-17T13:49:04.275Z,472
2016-07-17T13:50:02.870Z,348
2016-07-17T13:51:04.287Z,284
2016-07-17T13:52:02.172Z,284
2016-07-17T13:53:02.885Z,324
2016-07-17T13:54:04.320Z,328